sensor_id;sensor_type;location;lat;lon;timestamp;temperature;humidity
20487;DHT22;10402;49.012;8.370;2023-02-02T00:01:23;8.30;83.00
20487;DHT22;10402;49.012;8.370;2023-02-02T00:03:50;8.30;83.40
20487;DHT22;10402;49.012;8.370;2023-02-02T00:06:17;8.20;83.60
20487;DHT22;10402;49.012;8.370;2023-02-02T00:08:43;8.20;83.80
20487;DHT22;10402;49.012;8.370;2023-02-02T00:11:10;8.20;84.00
20487;DHT22;10402;49.012;8.370;2023-02-02T00:13:36;8.20;84.10
20487;DHT22;10402;49.012;8.370;2023-02-02T00:16:25;8.20;84.10
20487;DHT22;10402;49.012;8.370;2023-02-02T00:19:04;8.20;84.10
20487;DHT22;10402;49.012;8.370;2023-02-02T00:21:30;8.20;84.20
20487;DHT22;10402;49.012;8.370;2023-02-02T00:23:56;8.20;84.20
20487;DHT22;10402;49.012;8.370;2023-02-02T00:26:22;8.10;84.10
20487;DHT22;10402;49.012;8.370;2023-02-02T00:28:47;8.10;84.40
20487;DHT22;10402;49.012;8.370;2023-02-02T00:31:13;8.10;84.80
20487;DHT22;10402;49.012;8.370;2023-02-02T00:33:44;8.10;84.90
20487;DHT22;10402;49.012;8.370;2023-02-02T00:36:09;8.10;85.00
20487;DHT22;10402;49.012;8.370;2023-02-02T00:38:35;8.10;85.20
20487;DHT22;10402;49.012;8.370;2023-02-02T00:41:02;8.10;85.10
20487;DHT22;10402;49.012;8.370;2023-02-02T00:43:28;8.10;85.30
20487;DHT22;10402;49.012;8.370;2023-02-02T00:45:53;8.00;85.10
20487;DHT22;10402;49.012;8.370;2023-02-02T00:48:19;8.10;85.30
20487;DHT22;10402;49.012;8.370;2023-02-02T00:50:45;8.10;85.40
20487;DHT22;10402;49.012;8.370;2023-02-02T00:53:10;8.10;85.40
20487;DHT22;10402;49.012;8.370;2023-02-02T00:55:36;8.00;85.40
20487;DHT22;10402;49.012;8.370;2023-02-02T00:58:01;8.00;85.50
20487;DHT22;10402;49.012;8.370;2023-02-02T01:00:27;8.00;85.50
20487;DHT22;10402;49.012;8.370;2023-02-02T01:02:53;8.00;85.60
20487;DHT22;10402;49.012;8.370;2023-02-02T01:05:19;7.90;85.60
20487;DHT22;10402;49.012;8.370;2023-02-02T01:07:45;7.90;86.50
20487;DHT22;10402;49.012;8.370;2023-02-02T01:10:16;7.90;85.90
20487;DHT22;10402;49.012;8.370;2023-02-02T01:12:42;7.90;86.00
20487;DHT22;10402;49.012;8.370;2023-02-02T01:15:09;7.90;86.10
20487;DHT22;10402;49.012;8.370;2023-02-02T01:17:35;7.90;86.10
20487;DHT22;10402;49.012;8.370;2023-02-02T01:20:01;7.90;86.10
20487;DHT22;10402;49.012;8.370;2023-02-02T01:22:27;7.90;86.10
20487;DHT22;10402;49.012;8.370;2023-02-02T01:24:52;7.90;86.20
20487;DHT22;10402;49.012;8.370;2023-02-02T01:27:18;7.90;86.10
20487;DHT22;10402;49.012;8.370;2023-02-02T01:29:43;7.90;86.20
20487;DHT22;10402;49.012;8.370;2023-02-02T01:32:10;7.90;86.30
20487;DHT22;10402;49.012;8.370;2023-02-02T01:34:35;7.90;86.40
20487;DHT22;10402;49.012;8.370;2023-02-02T01:37:05;7.90;86.50
20487;DHT22;10402;49.012;8.370;2023-02-02T01:39:30;8.00;86.40
20487;DHT22;10402;49.012;8.370;2023-02-02T01:41:56;8.00;86.30
20487;DHT22;10402;49.012;8.370;2023-02-02T01:47:26;7.90;86.10
20487;DHT22;10402;49.012;8.370;2023-02-02T01:49:54;8.00;86.30
20487;DHT22;10402;49.012;8.370;2023-02-02T01:52:22;7.90;86.20
20487;DHT22;10402;49.012;8.370;2023-02-02T01:54:54;7.90;86.30
20487;DHT22;10402;49.012;8.370;2023-02-02T01:57:32;7.90;86.50
20487;DHT22;10402;49.012;8.370;2023-02-02T02:00:03;7.90;86.70
20487;DHT22;10402;49.012;8.370;2023-02-02T02:02:29;7.90;86.70
20487;DHT22;10402;49.012;8.370;2023-02-02T02:04:56;7.90;86.80
20487;DHT22;10402;49.012;8.370;2023-02-02T02:07:24;7.90;86.90
20487;DHT22;10402;49.012;8.370;2023-02-02T02:09:49;7.90;86.90
20487;DHT22;10402;49.012;8.370;2023-02-02T02:12:15;7.90;86.90
20487;DHT22;10402;49.012;8.370;2023-02-02T02:14:42;7.90;86.80
20487;DHT22;10402;49.012;8.370;2023-02-02T02:18:02;7.90;86.90
20487;DHT22;10402;49.012;8.370;2023-02-02T02:32:21;7.90;87.10
20487;DHT22;10402;49.012;8.370;2023-02-02T02:39:56;7.90;87.50
20487;DHT22;10402;49.012;8.370;2023-02-02T02:42:27;7.90;87.40
20487;DHT22;10402;49.012;8.370;2023-02-02T02:44:55;8.00;87.40
20487;DHT22;10402;49.012;8.370;2023-02-02T02:47:24;8.00;87.40
20487;DHT22;10402;49.012;8.370;2023-02-02T02:49:50;8.00;87.40
20487;DHT22;10402;49.012;8.370;2023-02-02T02:52:15;8.00;87.50
20487;DHT22;10402;49.012;8.370;2023-02-02T02:54:49;8.00;87.50
20487;DHT22;10402;49.012;8.370;2023-02-02T02:57:57;8.00;87.70
20487;DHT22;10402;49.012;8.370;2023-02-02T03:00:34;8.00;87.70
20487;DHT22;10402;49.012;8.370;2023-02-02T03:08:46;7.90;87.80
20487;DHT22;10402;49.012;8.370;2023-02-02T03:11:14;7.90;88.00
20487;DHT22;10402;49.012;8.370;2023-02-02T03:13:40;7.90;88.20
20487;DHT22;10402;49.012;8.370;2023-02-02T03:16:08;7.90;88.40
20487;DHT22;10402;49.012;8.370;2023-02-02T03:18:34;7.90;88.60
20487;DHT22;10402;49.012;8.370;2023-02-02T03:21:00;7.80;88.40
20487;DHT22;10402;49.012;8.370;2023-02-02T03:23:26;7.90;88.70
20487;DHT22;10402;49.012;8.370;2023-02-02T03:25:52;7.90;88.70
20487;DHT22;10402;49.012;8.370;2023-02-02T03:28:18;7.80;88.80
20487;DHT22;10402;49.012;8.370;2023-02-02T03:30:45;7.80;88.90
20487;DHT22;10402;49.012;8.370;2023-02-02T03:33:13;7.80;89.00
20487;DHT22;10402;49.012;8.370;2023-02-02T03:35:39;7.80;89.00
20487;DHT22;10402;49.012;8.370;2023-02-02T03:38:05;7.80;89.10
20487;DHT22;10402;49.012;8.370;2023-02-02T03:40:30;7.80;89.20
20487;DHT22;10402;49.012;8.370;2023-02-02T03:42:56;7.80;89.30
20487;DHT22;10402;49.012;8.370;2023-02-02T03:45:21;7.80;89.40
20487;DHT22;10402;49.012;8.370;2023-02-02T03:47:47;7.80;89.40
20487;DHT22;10402;49.012;8.370;2023-02-02T03:50:13;7.80;89.40
20487;DHT22;10402;49.012;8.370;2023-02-02T03:52:39;7.80;89.40
20487;DHT22;10402;49.012;8.370;2023-02-02T03:55:05;7.80;89.40
20487;DHT22;10402;49.012;8.370;2023-02-02T03:57:30;7.80;89.40
20487;DHT22;10402;49.012;8.370;2023-02-02T03:59:56;7.80;89.40
20487;DHT22;10402;49.012;8.370;2023-02-02T04:02:22;7.80;89.40
20487;DHT22;10402;49.012;8.370;2023-02-02T04:04:47;7.70;89.40
20487;DHT22;10402;49.012;8.370;2023-02-02T04:07:13;7.70;89.50
20487;DHT22;10402;49.012;8.370;2023-02-02T04:09:39;7.80;89.70
20487;DHT22;10402;49.012;8.370;2023-02-02T04:12:04;7.80;89.50
20487;DHT22;10402;49.012;8.370;2023-02-02T04:14:30;7.80;89.80
20487;DHT22;10402;49.012;8.370;2023-02-02T04:16:55;7.80;89.80
20487;DHT22;10402;49.012;8.370;2023-02-02T04:19:21;7.80;89.90
20487;DHT22;10402;49.012;8.370;2023-02-02T04:21:47;7.80;89.80
20487;DHT22;10402;49.012;8.370;2023-02-02T04:24:13;7.80;89.90
20487;DHT22;10402;49.012;8.370;2023-02-02T04:26:40;7.80;89.80
20487;DHT22;10402;49.012;8.370;2023-02-02T04:29:05;7.80;89.90
20487;DHT22;10402;49.012;8.370;2023-02-02T04:31:31;7.70;89.90
20487;DHT22;10402;49.012;8.370;2023-02-02T04:33:57;7.70;89.90
20487;DHT22;10402;49.012;8.370;2023-02-02T04:36:23;7.80;90.00
20487;DHT22;10402;49.012;8.370;2023-02-02T04:38:49;7.80;90.00
20487;DHT22;10402;49.012;8.370;2023-02-02T04:41:16;7.80;90.00
20487;DHT22;10402;49.012;8.370;2023-02-02T04:43:43;7.80;89.90
20487;DHT22;10402;49.012;8.370;2023-02-02T04:46:09;7.80;89.80
20487;DHT22;10402;49.012;8.370;2023-02-02T04:48:35;7.80;89.80
20487;DHT22;10402;49.012;8.370;2023-02-02T04:51:02;7.80;90.00
20487;DHT22;10402;49.012;8.370;2023-02-02T04:53:28;7.80;90.00
20487;DHT22;10402;49.012;8.370;2023-02-02T04:55:54;7.80;90.10
20487;DHT22;10402;49.012;8.370;2023-02-02T04:58:20;7.80;90.10
20487;DHT22;10402;49.012;8.370;2023-02-02T05:00:46;7.80;90.50
20487;DHT22;10402;49.012;8.370;2023-02-02T05:03:11;7.80;90.10
20487;DHT22;10402;49.012;8.370;2023-02-02T05:05:37;7.80;90.10
20487;DHT22;10402;49.012;8.370;2023-02-02T05:08:03;7.80;90.20
20487;DHT22;10402;49.012;8.370;2023-02-02T05:10:29;7.80;90.10
20487;DHT22;10402;49.012;8.370;2023-02-02T05:12:54;7.80;90.20
20487;DHT22;10402;49.012;8.370;2023-02-02T05:15:20;7.80;90.10
20487;DHT22;10402;49.012;8.370;2023-02-02T05:17:47;7.80;90.20
20487;DHT22;10402;49.012;8.370;2023-02-02T05:20:13;7.90;90.20
20487;DHT22;10402;49.012;8.370;2023-02-02T05:22:38;7.90;90.20
20487;DHT22;10402;49.012;8.370;2023-02-02T05:25:05;7.90;90.20
20487;DHT22;10402;49.012;8.370;2023-02-02T05:27:31;7.90;90.20
20487;DHT22;10402;49.012;8.370;2023-02-02T05:29:56;7.90;90.20
20487;DHT22;10402;49.012;8.370;2023-02-02T05:32:22;7.90;90.20
20487;DHT22;10402;49.012;8.370;2023-02-02T05:34:48;7.90;90.30
20487;DHT22;10402;49.012;8.370;2023-02-02T05:37:13;7.90;90.20
20487;DHT22;10402;49.012;8.370;2023-02-02T05:39:39;7.90;90.20
20487;DHT22;10402;49.012;8.370;2023-02-02T05:42:04;7.90;90.30
20487;DHT22;10402;49.012;8.370;2023-02-02T05:44:30;7.90;90.30
20487;DHT22;10402;49.012;8.370;2023-02-02T05:46:56;7.90;90.30
20487;DHT22;10402;49.012;8.370;2023-02-02T05:49:21;7.90;90.30
20487;DHT22;10402;49.012;8.370;2023-02-02T05:51:50;8.00;90.30
20487;DHT22;10402;49.012;8.370;2023-02-02T05:54:18;8.00;90.30
20487;DHT22;10402;49.012;8.370;2023-02-02T05:56:49;8.00;90.30
20487;DHT22;10402;49.012;8.370;2023-02-02T05:59:15;8.10;90.30
20487;DHT22;10402;49.012;8.370;2023-02-02T06:01:42;8.10;90.20
20487;DHT22;10402;49.012;8.370;2023-02-02T06:04:08;8.10;90.20
20487;DHT22;10402;49.012;8.370;2023-02-02T06:06:33;8.00;90.30
20487;DHT22;10402;49.012;8.370;2023-02-02T06:09:00;8.00;90.30
20487;DHT22;10402;49.012;8.370;2023-02-02T06:11:26;8.00;90.30
20487;DHT22;10402;49.012;8.370;2023-02-02T06:13:51;8.10;90.40
20487;DHT22;10402;49.012;8.370;2023-02-02T06:16:17;8.10;90.30
20487;DHT22;10402;49.012;8.370;2023-02-02T06:18:43;8.10;90.30
20487;DHT22;10402;49.012;8.370;2023-02-02T06:21:09;8.20;90.30
20487;DHT22;10402;49.012;8.370;2023-02-02T06:23:35;8.20;90.30
20487;DHT22;10402;49.012;8.370;2023-02-02T06:26:01;8.10;90.30
20487;DHT22;10402;49.012;8.370;2023-02-02T06:28:29;8.20;90.30
20487;DHT22;10402;49.012;8.370;2023-02-02T06:30:54;8.10;90.30
20487;DHT22;10402;49.012;8.370;2023-02-02T06:33:20;8.10;90.30
20487;DHT22;10402;49.012;8.370;2023-02-02T06:35:45;8.10;90.30
20487;DHT22;10402;49.012;8.370;2023-02-02T06:38:11;8.10;90.40
20487;DHT22;10402;49.012;8.370;2023-02-02T06:40:37;8.10;90.40
20487;DHT22;10402;49.012;8.370;2023-02-02T06:43:03;8.10;90.40
20487;DHT22;10402;49.012;8.370;2023-02-02T06:45:29;8.10;90.50
20487;DHT22;10402;49.012;8.370;2023-02-02T06:47:59;8.10;90.60
20487;DHT22;10402;49.012;8.370;2023-02-02T06:50:29;8.10;90.60
20487;DHT22;10402;49.012;8.370;2023-02-02T06:52:55;8.10;90.60
20487;DHT22;10402;49.012;8.370;2023-02-02T06:55:20;8.00;90.60
20487;DHT22;10402;49.012;8.370;2023-02-02T06:57:46;8.10;90.70
20487;DHT22;10402;49.012;8.370;2023-02-02T07:00:12;8.10;90.70
20487;DHT22;10402;49.012;8.370;2023-02-02T07:02:38;8.00;90.70
20487;DHT22;10402;49.012;8.370;2023-02-02T07:05:04;8.00;90.70
20487;DHT22;10402;49.012;8.370;2023-02-02T07:07:33;8.00;90.80
20487;DHT22;10402;49.012;8.370;2023-02-02T07:09:59;8.00;90.90
20487;DHT22;10402;49.012;8.370;2023-02-02T07:12:25;8.00;90.80
20487;DHT22;10402;49.012;8.370;2023-02-02T07:14:52;8.00;90.90
20487;DHT22;10402;49.012;8.370;2023-02-02T07:17:17;8.00;90.90
20487;DHT22;10402;49.012;8.370;2023-02-02T07:19:43;8.00;90.90
20487;DHT22;10402;49.012;8.370;2023-02-02T07:22:09;8.00;90.90
20487;DHT22;10402;49.012;8.370;2023-02-02T07:24:34;8.00;90.90
20487;DHT22;10402;49.012;8.370;2023-02-02T07:27:03;8.00;90.90
20487;DHT22;10402;49.012;8.370;2023-02-02T07:29:28;8.00;91.00
20487;DHT22;10402;49.012;8.370;2023-02-02T07:31:54;8.00;91.00
20487;DHT22;10402;49.012;8.370;2023-02-02T07:34:19;8.00;91.00
20487;DHT22;10402;49.012;8.370;2023-02-02T07:36:45;8.10;91.00
20487;DHT22;10402;49.012;8.370;2023-02-02T07:39:10;8.10;90.90
20487;DHT22;10402;49.012;8.370;2023-02-02T07:41:36;8.10;90.90
20487;DHT22;10402;49.012;8.370;2023-02-02T07:44:03;8.20;90.90
20487;DHT22;10402;49.012;8.370;2023-02-02T07:46:28;8.20;90.80
20487;DHT22;10402;49.012;8.370;2023-02-02T07:48:55;8.20;90.90
20487;DHT22;10402;49.012;8.370;2023-02-02T07:51:21;8.20;90.80
20487;DHT22;10402;49.012;8.370;2023-02-02T07:53:50;8.20;90.80
20487;DHT22;10402;49.012;8.370;2023-02-02T07:56:25;8.20;90.90
20487;DHT22;10402;49.012;8.370;2023-02-02T07:58:52;8.20;90.90
20487;DHT22;10402;49.012;8.370;2023-02-02T08:01:18;8.20;90.80
20487;DHT22;10402;49.012;8.370;2023-02-02T08:03:47;8.20;90.80
20487;DHT22;10402;49.012;8.370;2023-02-02T08:06:22;8.30;90.80
20487;DHT22;10402;49.012;8.370;2023-02-02T08:08:48;8.30;90.80
20487;DHT22;10402;49.012;8.370;2023-02-02T08:11:16;8.20;90.70
20487;DHT22;10402;49.012;8.370;2023-02-02T08:13:42;8.20;90.70
20487;DHT22;10402;49.012;8.370;2023-02-02T08:16:09;8.20;91.10
20487;DHT22;10402;49.012;8.370;2023-02-02T08:18:36;8.20;90.80
20487;DHT22;10402;49.012;8.370;2023-02-02T08:21:03;8.20;90.80
20487;DHT22;10402;49.012;8.370;2023-02-02T08:23:29;8.20;90.80
20487;DHT22;10402;49.012;8.370;2023-02-02T08:26:26;8.30;90.80
20487;DHT22;10402;49.012;8.370;2023-02-02T08:28:56;8.30;90.80
20487;DHT22;10402;49.012;8.370;2023-02-02T08:31:36;8.30;90.70
20487;DHT22;10402;49.012;8.370;2023-02-02T08:34:03;8.30;90.80
20487;DHT22;10402;49.012;8.370;2023-02-02T08:36:29;8.40;90.70
20487;DHT22;10402;49.012;8.370;2023-02-02T08:38:58;8.30;90.70
20487;DHT22;10402;49.012;8.370;2023-02-02T08:41:24;8.40;90.80
20487;DHT22;10402;49.012;8.370;2023-02-02T08:43:50;8.30;90.70
20487;DHT22;10402;49.012;8.370;2023-02-02T08:46:17;8.40;90.80
20487;DHT22;10402;49.012;8.370;2023-02-02T08:48:43;8.40;90.70
20487;DHT22;10402;49.012;8.370;2023-02-02T08:51:11;8.50;90.80
20487;DHT22;10402;49.012;8.370;2023-02-02T08:53:38;8.50;90.80
20487;DHT22;10402;49.012;8.370;2023-02-02T08:56:10;8.50;90.70
20487;DHT22;10402;49.012;8.370;2023-02-02T08:58:36;8.50;90.60
20487;DHT22;10402;49.012;8.370;2023-02-02T09:01:10;8.50;90.60
20487;DHT22;10402;49.012;8.370;2023-02-02T09:03:37;8.50;90.60
20487;DHT22;10402;49.012;8.370;2023-02-02T09:06:16;8.50;90.60
20487;DHT22;10402;49.012;8.370;2023-02-02T09:08:42;8.50;90.50
20487;DHT22;10402;49.012;8.370;2023-02-02T09:11:13;8.50;90.60
20487;DHT22;10402;49.012;8.370;2023-02-02T09:13:40;8.50;90.60
20487;DHT22;10402;49.012;8.370;2023-02-02T09:16:08;8.50;90.70
20487;DHT22;10402;49.012;8.370;2023-02-02T09:18:34;8.50;90.60
20487;DHT22;10402;49.012;8.370;2023-02-02T09:21:02;8.60;90.70
20487;DHT22;10402;49.012;8.370;2023-02-02T09:23:29;8.60;90.60
20487;DHT22;10402;49.012;8.370;2023-02-02T09:25:55;8.60;90.60
20487;DHT22;10402;49.012;8.370;2023-02-02T09:28:21;8.70;90.70
20487;DHT22;10402;49.012;8.370;2023-02-02T09:30:46;8.70;90.50
20487;DHT22;10402;49.012;8.370;2023-02-02T09:33:12;8.70;90.50
20487;DHT22;10402;49.012;8.370;2023-02-02T09:35:38;8.70;90.50
20487;DHT22;10402;49.012;8.370;2023-02-02T09:38:04;8.80;90.50
20487;DHT22;10402;49.012;8.370;2023-02-02T09:40:31;8.70;90.40
20487;DHT22;10402;49.012;8.370;2023-02-02T09:44:08;8.70;90.40
20487;DHT22;10402;49.012;8.370;2023-02-02T09:46:16;8.70;90.40
20487;DHT22;10402;49.012;8.370;2023-02-02T09:48:56;8.70;90.50
20487;DHT22;10402;49.012;8.370;2023-02-02T09:51:27;8.70;90.40
20487;DHT22;10402;49.012;8.370;2023-02-02T09:54:05;8.80;90.50
20487;DHT22;10402;49.012;8.370;2023-02-02T09:56:41;8.70;90.40
20487;DHT22;10402;49.012;8.370;2023-02-02T09:59:19;8.80;90.40
20487;DHT22;10402;49.012;8.370;2023-02-02T10:01:46;8.80;90.40
20487;DHT22;10402;49.012;8.370;2023-02-02T10:04:26;8.80;90.40
20487;DHT22;10402;49.012;8.370;2023-02-02T10:06:56;8.80;90.30
20487;DHT22;10402;49.012;8.370;2023-02-02T10:14:39;9.00;90.30
20487;DHT22;10402;49.012;8.370;2023-02-02T10:19:59;9.10;90.20
20487;DHT22;10402;49.012;8.370;2023-02-02T10:22:28;9.10;90.20
20487;DHT22;10402;49.012;8.370;2023-02-02T10:24:57;9.10;90.10
20487;DHT22;10402;49.012;8.370;2023-02-02T10:30:54;9.20;90.10
20487;DHT22;10402;49.012;8.370;2023-02-02T10:33:37;9.20;90.00
20487;DHT22;10402;49.012;8.370;2023-02-02T10:36:48;9.20;90.00
20487;DHT22;10402;49.012;8.370;2023-02-02T10:44:41;9.20;89.70
20487;DHT22;10402;49.012;8.370;2023-02-02T10:47:15;9.20;89.70
20487;DHT22;10402;49.012;8.370;2023-02-02T10:49:41;9.20;89.80
20487;DHT22;10402;49.012;8.370;2023-02-02T10:52:15;9.20;89.90
20487;DHT22;10402;49.012;8.370;2023-02-02T10:54:56;9.20;89.70
20487;DHT22;10402;49.012;8.370;2023-02-02T11:02:50;9.20;89.80
20487;DHT22;10402;49.012;8.370;2023-02-02T11:05:23;9.10;89.60
20487;DHT22;10402;49.012;8.370;2023-02-02T11:13:42;9.10;89.70
20487;DHT22;10402;49.012;8.370;2023-02-02T11:18:40;9.20;89.70
20487;DHT22;10402;49.012;8.370;2023-02-02T11:21:24;9.20;89.70
20487;DHT22;10402;49.012;8.370;2023-02-02T11:24:03;9.20;89.50
20487;DHT22;10402;49.012;8.370;2023-02-02T11:26:44;9.20;89.50
20487;DHT22;10402;49.012;8.370;2023-02-02T11:29:14;9.20;89.50
20487;DHT22;10402;49.012;8.370;2023-02-02T11:31:40;9.20;89.50
20487;DHT22;10402;49.012;8.370;2023-02-02T11:34:18;9.20;89.60
20487;DHT22;10402;49.012;8.370;2023-02-02T11:39:22;9.20;89.50
20487;DHT22;10402;49.012;8.370;2023-02-02T11:41:48;9.20;89.40
20487;DHT22;10402;49.012;8.370;2023-02-02T11:44:32;9.20;89.40
20487;DHT22;10402;49.012;8.370;2023-02-02T11:47:01;9.20;89.30
20487;DHT22;10402;49.012;8.370;2023-02-02T11:49:27;9.20;89.40
20487;DHT22;10402;49.012;8.370;2023-02-02T11:52:02;9.20;89.30
20487;DHT22;10402;49.012;8.370;2023-02-02T11:54:36;9.20;89.10
20487;DHT22;10402;49.012;8.370;2023-02-02T11:57:07;9.20;89.10
20487;DHT22;10402;49.012;8.370;2023-02-02T11:59:41;9.10;89.00
20487;DHT22;10402;49.012;8.370;2023-02-02T12:02:44;9.10;89.80
20487;DHT22;10402;49.012;8.370;2023-02-02T12:05:23;9.20;89.20
20487;DHT22;10402;49.012;8.370;2023-02-02T12:07:56;9.20;89.10
20487;DHT22;10402;49.012;8.370;2023-02-02T12:13:13;9.10;88.80
20487;DHT22;10402;49.012;8.370;2023-02-02T12:24:59;9.40;88.60
20487;DHT22;10402;49.012;8.370;2023-02-02T12:27:36;9.40;88.50
20487;DHT22;10402;49.012;8.370;2023-02-02T12:30:12;9.40;88.40
20487;DHT22;10402;49.012;8.370;2023-02-02T12:32:56;9.40;88.30
20487;DHT22;10402;49.012;8.370;2023-02-02T12:47:03;9.50;88.30
20487;DHT22;10402;49.012;8.370;2023-02-02T12:52:48;9.60;88.40
20487;DHT22;10402;49.012;8.370;2023-02-02T12:55:16;9.50;88.10
20487;DHT22;10402;49.012;8.370;2023-02-02T13:00:34;9.60;88.40
20487;DHT22;10402;49.012;8.370;2023-02-02T13:06:09;9.50;88.30
20487;DHT22;10402;49.012;8.370;2023-02-02T13:08:59;9.50;88.50
20487;DHT22;10402;49.012;8.370;2023-02-02T13:11:52;9.50;88.40
20487;DHT22;10402;49.012;8.370;2023-02-02T13:14:29;9.40;88.50
20487;DHT22;10402;49.012;8.370;2023-02-02T13:17:03;9.50;88.60
20487;DHT22;10402;49.012;8.370;2023-02-02T13:19:45;9.50;88.70
20487;DHT22;10402;49.012;8.370;2023-02-02T13:22:16;9.50;88.70
20487;DHT22;10402;49.012;8.370;2023-02-02T13:24:44;9.40;88.50
20487;DHT22;10402;49.012;8.370;2023-02-02T13:27:15;9.50;88.80
20487;DHT22;10402;49.012;8.370;2023-02-02T13:29:53;9.50;89.40
20487;DHT22;10402;49.012;8.370;2023-02-02T13:32:32;9.50;88.60
20487;DHT22;10402;49.012;8.370;2023-02-02T13:38:03;9.50;88.60
20487;DHT22;10402;49.012;8.370;2023-02-02T13:40:37;9.60;88.70
20487;DHT22;10402;49.012;8.370;2023-02-02T13:48:22;9.50;88.40
20487;DHT22;10402;49.012;8.370;2023-02-02T14:05:02;9.60;88.30
20487;DHT22;10402;49.012;8.370;2023-02-02T14:07:44;9.60;88.20
20487;DHT22;10402;49.012;8.370;2023-02-02T14:10:25;9.60;88.10
20487;DHT22;10402;49.012;8.370;2023-02-02T14:12:52;9.60;87.90
20487;DHT22;10402;49.012;8.370;2023-02-02T14:15:35;9.60;87.70
20487;DHT22;10402;49.012;8.370;2023-02-02T14:18:01;9.50;87.70
20487;DHT22;10402;49.012;8.370;2023-02-02T14:20:46;9.60;87.70
20487;DHT22;10402;49.012;8.370;2023-02-02T14:37:48;9.60;87.20
20487;DHT22;10402;49.012;8.370;2023-02-02T14:40:33;9.60;87.00
20487;DHT22;10402;49.012;8.370;2023-02-02T14:45:48;9.60;86.70
20487;DHT22;10402;49.012;8.370;2023-02-02T14:48:35;9.60;86.70
20487;DHT22;10402;49.012;8.370;2023-02-02T14:51:11;9.60;86.60
20487;DHT22;10402;49.012;8.370;2023-02-02T14:53:38;9.60;86.40
20487;DHT22;10402;49.012;8.370;2023-02-02T15:14:37;9.60;85.60
20487;DHT22;10402;49.012;8.370;2023-02-02T15:20:11;9.60;85.60
20487;DHT22;10402;49.012;8.370;2023-02-02T15:28:19;9.60;85.60
20487;DHT22;10402;49.012;8.370;2023-02-02T15:30:48;9.60;85.70
20487;DHT22;10402;49.012;8.370;2023-02-02T15:35:53;9.60;85.50
20487;DHT22;10402;49.012;8.370;2023-02-02T15:38:23;9.50;85.40
20487;DHT22;10402;49.012;8.370;2023-02-02T15:40:52;9.60;85.50
20487;DHT22;10402;49.012;8.370;2023-02-02T15:43:17;9.50;85.30
20487;DHT22;10402;49.012;8.370;2023-02-02T15:45:49;9.50;85.30
20487;DHT22;10402;49.012;8.370;2023-02-02T15:50:50;9.50;85.40
20487;DHT22;10402;49.012;8.370;2023-02-02T15:53:27;9.50;85.60
20487;DHT22;10402;49.012;8.370;2023-02-02T15:55:55;9.50;85.50
20487;DHT22;10402;49.012;8.370;2023-02-02T15:58:26;9.50;85.40
20487;DHT22;10402;49.012;8.370;2023-02-02T16:00:58;9.50;85.40
20487;DHT22;10402;49.012;8.370;2023-02-02T16:03:32;9.50;85.40
20487;DHT22;10402;49.012;8.370;2023-02-02T16:05:58;9.50;85.40
20487;DHT22;10402;49.012;8.370;2023-02-02T16:08:29;9.50;85.50
20487;DHT22;10402;49.012;8.370;2023-02-02T16:11:07;9.50;85.50
20487;DHT22;10402;49.012;8.370;2023-02-02T16:13:33;9.40;85.40
20487;DHT22;10402;49.012;8.370;2023-02-02T16:16:01;9.40;85.50
20487;DHT22;10402;49.012;8.370;2023-02-02T16:18:29;9.40;85.40
20487;DHT22;10402;49.012;8.370;2023-02-02T16:20:57;9.40;85.40
20487;DHT22;10402;49.012;8.370;2023-02-02T16:23:43;9.40;85.50
20487;DHT22;10402;49.012;8.370;2023-02-02T16:26:12;9.40;85.40
20487;DHT22;10402;49.012;8.370;2023-02-02T16:28:39;9.40;85.60
20487;DHT22;10402;49.012;8.370;2023-02-02T16:31:05;9.30;85.50
20487;DHT22;10402;49.012;8.370;2023-02-02T16:33:41;9.30;85.90
20487;DHT22;10402;49.012;8.370;2023-02-02T16:36:25;9.30;86.00
20487;DHT22;10402;49.012;8.370;2023-02-02T16:38:53;9.30;86.20
20487;DHT22;10402;49.012;8.370;2023-02-02T16:41:33;9.30;86.10
20487;DHT22;10402;49.012;8.370;2023-02-02T16:44:41;9.20;86.10
20487;DHT22;10402;49.012;8.370;2023-02-02T16:47:42;9.20;86.10
20487;DHT22;10402;49.012;8.370;2023-02-02T16:52:50;9.20;86.20
20487;DHT22;10402;49.012;8.370;2023-02-02T16:55:17;9.10;86.20
20487;DHT22;10402;49.012;8.370;2023-02-02T16:57:44;9.10;86.20
20487;DHT22;10402;49.012;8.370;2023-02-02T17:00:25;9.10;86.20
20487;DHT22;10402;49.012;8.370;2023-02-02T17:03:05;9.20;86.30
20487;DHT22;10402;49.012;8.370;2023-02-02T17:05:57;9.20;86.40
20487;DHT22;10402;49.012;8.370;2023-02-02T17:08:32;9.10;86.20
20487;DHT22;10402;49.012;8.370;2023-02-02T17:11:05;9.20;86.40
20487;DHT22;10402;49.012;8.370;2023-02-02T17:13:37;9.20;86.10
20487;DHT22;10402;49.012;8.370;2023-02-02T17:16:03;9.10;86.20
20487;DHT22;10402;49.012;8.370;2023-02-02T17:18:29;9.20;86.30
20487;DHT22;10402;49.012;8.370;2023-02-02T17:20:56;9.20;86.30
20487;DHT22;10402;49.012;8.370;2023-02-02T17:23:27;9.20;86.20
20487;DHT22;10402;49.012;8.370;2023-02-02T17:25:53;9.20;86.20
20487;DHT22;10402;49.012;8.370;2023-02-02T17:28:22;9.20;86.00
20487;DHT22;10402;49.012;8.370;2023-02-02T17:30:54;9.20;85.90
20487;DHT22;10402;49.012;8.370;2023-02-02T17:33:21;9.20;85.80
20487;DHT22;10402;49.012;8.370;2023-02-02T17:35:46;9.20;85.90
20487;DHT22;10402;49.012;8.370;2023-02-02T17:38:14;9.20;85.70
20487;DHT22;10402;49.012;8.370;2023-02-02T17:40:41;9.20;85.50
20487;DHT22;10402;49.012;8.370;2023-02-02T17:43:10;9.20;85.50
20487;DHT22;10402;49.012;8.370;2023-02-02T17:45:36;9.20;85.70
20487;DHT22;10402;49.012;8.370;2023-02-02T17:48:03;9.20;85.50
20487;DHT22;10402;49.012;8.370;2023-02-02T17:50:30;9.20;85.70
20487;DHT22;10402;49.012;8.370;2023-02-02T17:52:56;9.20;85.60
20487;DHT22;10402;49.012;8.370;2023-02-02T17:55:29;9.10;85.80
20487;DHT22;10402;49.012;8.370;2023-02-02T17:57:54;9.20;85.70
20487;DHT22;10402;49.012;8.370;2023-02-02T18:00:22;9.20;85.80
20487;DHT22;10402;49.012;8.370;2023-02-02T18:02:50;9.20;85.70
20487;DHT22;10402;49.012;8.370;2023-02-02T18:05:16;9.10;85.60
20487;DHT22;10402;49.012;8.370;2023-02-02T18:07:42;9.20;85.90
20487;DHT22;10402;49.012;8.370;2023-02-02T18:10:12;9.20;85.80
20487;DHT22;10402;49.012;8.370;2023-02-02T18:12:38;9.30;85.70
20487;DHT22;10402;49.012;8.370;2023-02-02T18:15:06;9.30;85.50
20487;DHT22;10402;49.012;8.370;2023-02-02T18:17:32;9.30;85.30
20487;DHT22;10402;49.012;8.370;2023-02-02T18:19:58;9.30;85.40
20487;DHT22;10402;49.012;8.370;2023-02-02T18:22:24;9.30;85.40
20487;DHT22;10402;49.012;8.370;2023-02-02T18:24:50;9.30;85.50
20487;DHT22;10402;49.012;8.370;2023-02-02T18:27:16;9.30;85.50
20487;DHT22;10402;49.012;8.370;2023-02-02T18:29:45;9.30;85.60
20487;DHT22;10402;49.012;8.370;2023-02-02T18:32:11;9.30;85.60
20487;DHT22;10402;49.012;8.370;2023-02-02T18:34:36;9.30;85.70
20487;DHT22;10402;49.012;8.370;2023-02-02T18:37:02;9.30;85.50
20487;DHT22;10402;49.012;8.370;2023-02-02T18:39:28;9.30;85.60
20487;DHT22;10402;49.012;8.370;2023-02-02T18:41:54;9.30;85.60
20487;DHT22;10402;49.012;8.370;2023-02-02T18:44:19;9.30;85.50
20487;DHT22;10402;49.012;8.370;2023-02-02T18:46:46;9.30;85.60